Dades meteomassalio
Diari Summary for Setembre 22, 2017 Units:  English    Metric   Both
« Previous Day
Next Day »
Diari Semanal Mensual Anual Personalitzat
  Maxima: Minima: Mijana:
Temperatura: TemperatureC °F 12.8 °F 16.3 °F
Rosada: DewpointC °F 10.2 °F 13.3 °F
Humitat: Humidity % 64 % 82 %
Velocitat del vent: WindSpeedKMH mph 0.0 mph 2.3 mph
Racha vent: WindSpeedGustKMH mph - -
Vent:- - SW
Pressio: PressurehPa in 1019.2 in -
Pluja: 0.5 in    
Historical Graphs
 
 
Tabular Data for Setembre 22, 2017
Time Temperature Dew Point Pressure Wind Wind Speed Wind Gust Humidity Rainfall Rate (Hourly) solar Conditions
TemperatureC °F DewpointC °F PressurehPa in Calm     Humidity % HourlyPrecipMM in SolarRadiationWatts/m^2 W/m2 Conditions
00:03 15.0 °F 11.8 °F 1019.2 in Calm     81 % 0.0 in 0.0 W/m2 CLR
00:08 15.0 °F 11.8 °F 1019.2 in Calm     81 % 0.0 in 0.0 W/m2 CLR
00:13 15.0 °F 11.8 °F 1019.2 in Calm     81 % 0.0 in 0.0 W/m2 CLR
00:18 15.0 °F 11.9 °F 1019.2 in Calm     82 % 0.0 in 0.0 W/m2 CLR
00:23 15.0 °F 11.8 °F 1019.2 in Calm     81 % 0.0 in 0.0 W/m2 CLR
00:28 15.0 °F 11.8 °F 1019.5 in Calm     81 % 0.0 in 0.0 W/m2 CLR
00:33 15.0 °F 11.9 °F 1019.5 in Calm     82 % 0.0 in 0.0 W/m2 CLR
00:38 15.0 °F 12.1 °F 1019.5 in Calm     83 % 0.0 in 0.0 W/m2 CLR
00:43 15.6 °F 12.7 °F 1019.5 in Calm     83 % 0.0 in 0.0 W/m2 CLR
00:48 15.6 °F 12.5 °F 1019.5 in Calm     82 % 0.0 in 0.0 W/m2 CLR
00:53 15.6 °F 12.5 °F 1019.5 in Calm     82 % 0.0 in 0.0 W/m2 CLR
00:58 15.6 °F 12.5 °F 1019.5 in Calm     82 % 0.0 in 0.0 W/m2 CLR
01:03 15.6 °F 12.7 °F 1019.9 in Calm     83 % 0.0 in 0.0 W/m2 CLR
01:08 15.6 °F 12.9 °F 1019.9 in Calm     84 % 0.0 in 0.0 W/m2 CLR
01:13 15.6 °F 12.9 °F 1019.9 in Calm     84 % 0.0 in 0.0 W/m2 CLR
01:18 15.6 °F 12.7 °F 1019.9 in Calm     83 % 0.0 in 0.0 W/m2 CLR
01:23 16.1 °F 13.2 °F 1019.9 in Calm     83 % 0.0 in 0.0 W/m2 CLR
01:28 16.1 °F 13.4 °F 1019.9 in Calm     84 % 0.0 in 0.0 W/m2 CLR
01:33 16.1 °F 13.4 °F 1019.9 in Calm     84 % 0.0 in 0.0 W/m2 CLR
01:38 16.1 °F 13.4 °F 1019.5 in Calm     84 % 0.0 in 0.0 W/m2 CLR
01:43 16.1 °F 13.6 °F 1019.5 in Calm     85 % 0.0 in 0.0 W/m2 CLR
01:48 16.1 °F 13.4 °F 1019.5 in Calm     84 % 0.0 in 0.0 W/m2 CLR
01:53 16.1 °F 13.6 °F 1019.9 in Calm     85 % 0.0 in 0.0 W/m2 CLR
01:58 16.1 °F 13.8 °F 1019.9 in Calm     86 % 0.0 in 0.0 W/m2 CLR
02:03 16.1 °F 13.9 °F 1019.9 in Calm     87 % 0.0 in 0.0 W/m2 CLR
02:08 16.1 °F 14.1 °F 1019.9 in Calm     88 % 0.0 in 0.0 W/m2 CLR
02:13 16.1 °F 14.1 °F 1019.9 in Calm     88 % 0.0 in 0.0 W/m2 CLR
02:18 16.1 °F 14.1 °F 1019.9 in Calm     88 % 0.0 in 0.0 W/m2 CLR
02:23 15.6 °F 13.4 °F 1019.9 in Calm     87 % 0.0 in 0.0 W/m2 CLR
02:28 15.6 °F 13.6 °F 1019.9 in Calm     88 % 0.0 in 0.0 W/m2 CLR
02:33 15.6 °F 13.4 °F 1019.9 in Calm     87 % 0.0 in 0.0 W/m2 CLR
02:38 15.6 °F 13.4 °F 1019.9 in Calm     87 % 0.0 in 0.0 W/m2 CLR
02:43 15.6 °F 13.4 °F 1019.9 in Calm     87 % 0.0 in 0.0 W/m2 CLR
02:48 15.6 °F 13.6 °F 1019.9 in Calm     88 % 0.0 in 0.0 W/m2 CLR
02:53 15.0 °F 13.0 °F 1020.2 in Calm     88 % 0.0 in 0.0 W/m2 CLR
02:58 15.0 °F 13.0 °F 1020.2 in Calm     88 % 0.0 in 0.0 W/m2 CLR
03:03 15.6 °F 13.6 °F 1019.9 in Calm     88 % 0.0 in 0.0 W/m2 CLR
03:08 15.6 °F 13.7 °F 1019.9 in Calm     89 % 0.0 in 0.0 W/m2 CLR
03:13 15.6 °F 13.7 °F 1019.9 in Calm     89 % 0.0 in 0.0 W/m2 CLR
03:18 15.6 °F 13.7 °F 1019.9 in Calm     89 % 0.0 in 0.0 W/m2 CLR
03:23 15.6 °F 13.7 °F 1019.9 in Calm     89 % 0.0 in 0.0 W/m2 CLR
03:28 16.1 °F 14.3 °F 1020.2 in SSE 16.7 mph 16.7 mph 89 % 0.0 in 0.0 W/m2 CLR
03:33 16.1 °F 14.4 °F 1020.2 in South 16.7 mph 16.7 mph 90 % 0.0 in 0.0 W/m2 CLR
03:38 16.7 °F 15.0 °F 1020.2 in Calm     90 % 0.0 in 0.0 W/m2 CLR
03:43 16.1 °F 14.4 °F 1020.2 in South 13.0 mph 13.0 mph 90 % 0.0 in 0.0 W/m2 CLR
03:48 16.1 °F 14.4 °F 1020.2 in SSE 9.3 mph 9.3 mph 90 % 0.0 in 0.0 W/m2 CLR
03:53 16.1 °F 14.4 °F 1020.2 in Calm     90 % 0.0 in 0.0 W/m2 CLR
03:58 16.1 °F 14.4 °F 1020.2 in SSE 1.9 mph   90 % 0.0 in 0.0 W/m2 CLR
04:03 16.1 °F 14.4 °F 1020.2 in SE 11.1 mph 11.1 mph 90 % 0.0 in 0.0 W/m2 CLR
04:04 16.1 °F 14.4 °F 1020.2 in SSE 7.4 mph 7.4 mph 90 % 0.0 in 0.0 W/m2 CLR
04:09 16.1 °F 14.4 °F 1020.2 in SSE 11.1 mph 11.1 mph 90 % 0.0 in 0.0 W/m2 CLR
04:14 16.1 °F 14.4 °F 1020.2 in Calm     90 % 0.0 in 0.0 W/m2 CLR
04:19 16.1 °F 14.3 °F 1020.2 in Calm     89 % 0.0 in 0.0 W/m2 CLR
04:24 16.1 °F 14.3 °F 1020.2 in SSE 3.7 mph   89 % 0.0 in 0.0 W/m2 CLR
04:29 16.1 °F 14.4 °F 1020.2 in Calm     90 % 0.0 in 0.0 W/m2 CLR
04:34 16.1 °F 14.4 °F 1020.2 in Calm     90 % 0.0 in 0.0 W/m2 CLR
04:39 16.1 °F 14.4 °F 1020.2 in South 6.4 mph 6.4 mph 90 % 0.0 in 0.0 W/m2 CLR
04:44 16.7 °F 15.0 °F 1020.2 in South 11.1 mph 11.1 mph 90 % 0.0 in 0.0 W/m2 CLR
04:49 16.1 °F 14.1 °F 1020.2 in SSW 16.7 mph 16.7 mph 88 % 0.0 in 0.0 W/m2 CLR
04:54 16.1 °F 13.9 °F 1020.2 in South 11.1 mph 11.1 mph 87 % 0.0 in 0.0 W/m2 CLR
04:59 16.1 °F 13.6 °F 1020.2 in South 13.0 mph 13.0 mph 85 % 0.0 in 0.0 W/m2 CLR
05:04 16.7 °F 13.9 °F 1020.2 in South 11.1 mph 11.1 mph 84 % 0.0 in 0.0 W/m2 CLR
05:09 16.7 °F 13.8 °F 1020.5 in SSE 13.0 mph 13.0 mph 83 % 0.0 in 0.0 W/m2 CLR
05:14 16.7 °F 13.6 °F 1020.5 in SSW 13.0 mph 13.0 mph 82 % 0.0 in 0.0 W/m2 CLR
05:19 16.7 °F 13.6 °F 1020.5 in SSW 9.3 mph   82 % 0.0 in 0.0 W/m2 CLR
05:24 16.7 °F 13.4 °F 1020.5 in Calm     81 % 0.0 in 0.0 W/m2 CLR
05:29 16.1 °F 12.8 °F 1020.5 in Calm     81 % 0.0 in 0.0 W/m2 CLR
05:34 16.1 °F 12.8 °F 1020.5 in Calm     81 % 0.0 in 0.0 W/m2 CLR
05:39 16.1 °F 12.8 °F 1020.5 in Calm     81 % 0.0 in 0.0 W/m2 CLR
05:44 15.6 °F 12.5 °F 1020.5 in Calm     82 % 0.0 in 0.0 W/m2 CLR
05:49 15.0 °F 11.9 °F 1020.5 in Calm     82 % 0.0 in 0.0 W/m2 CLR
05:54 15.0 °F 11.8 °F 1020.5 in Calm     81 % 0.0 in 0.0 W/m2 CLR
05:59 14.4 °F 11.2 °F 1020.5 in Calm     81 % 0.0 in 0.0 W/m2 CLR
06:00 14.4 °F 11.2 °F 1020.5 in Calm     81 % 0.0 in 0.0 W/m2 CLR
06:05 14.4 °F 11.2 °F 1020.5 in Calm     81 % 0.0 in 0.0 W/m2 CLR
06:10 13.9 °F 10.7 °F 1020.5 in Calm     81 % 0.0 in 0.0 W/m2 CLR
06:15 13.9 °F 10.9 °F 1020.5 in Calm     82 % 0.0 in 0.0 W/m2 CLR
06:20 13.9 °F 10.9 °F 1020.2 in Calm     82 % 0.0 in 0.0 W/m2 CLR
06:25 13.9 °F 10.9 °F 1020.5 in Calm     82 % 0.0 in 0.0 W/m2 CLR
06:30 13.3 °F 10.3 °F 1020.5 in Calm     82 % 0.0 in 0.0 W/m2 CLR
06:35 13.3 °F 10.5 °F 1020.5 in Calm     83 % 0.0 in 0.0 W/m2 CLR
06:40 13.3 °F 10.5 °F 1020.5 in Calm     83 % 0.0 in 0.0 W/m2 CLR
06:45 13.3 °F 10.5 °F 1020.5 in Calm     83 % 0.0 in 0.0 W/m2 CLR
06:50 13.3 °F 10.5 °F 1020.5 in Calm     83 % 0.0 in 0.0 W/m2 CLR
06:55 13.3 °F 10.5 °F 1020.5 in Calm     83 % 0.0 in 0.0 W/m2 CLR
07:00 13.3 °F 10.5 °F 1020.5 in Calm     83 % 0.0 in 0.0 W/m2 CLR
07:05 13.3 °F 10.5 °F 1020.5 in Calm     83 % 0.0 in 0.0 W/m2 CLR
07:10 13.3 °F 10.7 °F 1020.5 in Calm     84 % 0.0 in 0.0 W/m2 CLR
07:15 13.3 °F 10.7 °F 1020.5 in Calm     84 % 0.0 in 0.0 W/m2 CLR
07:20 12.8 °F 10.2 °F 1020.9 in Calm     84 % 0.0 in 0.0 W/m2 CLR
07:25 12.8 °F 10.3 °F 1020.5 in Calm     85 % 0.0 in 0.0 W/m2 CLR
07:30 12.8 °F 10.3 °F 1020.5 in Calm     85 % 0.0 in 0.0 W/m2 CLR
07:35 12.8 °F 10.5 °F 1020.9 in Calm     86 % 0.0 in 0.0 W/m2 CLR
07:40 12.8 °F 10.5 °F 1020.9 in Calm     86 % 0.0 in 0.0 W/m2 OVC
07:45 12.8 °F 10.5 °F 1020.9 in Calm     86 % 0.0 in 0.0 W/m2 OVC
07:50 12.8 °F 10.5 °F 1020.9 in Calm     86 % 0.0 in 5.0 W/m2 OVC
07:55 12.8 °F 10.5 °F 1020.9 in Calm     86 % 0.0 in 7.0 W/m2 BKN
08:00 12.8 °F 10.7 °F 1020.9 in Calm     87 % 0.0 in 12.0 W/m2 BKN
08:05 12.8 °F 10.7 °F 1020.9 in Calm     87 % 0.0 in 16.0 W/m2 BKN
08:10 12.8 °F 10.7 °F 1020.9 in Calm     87 % 0.0 in 26.0 W/m2 BKN
08:15 12.8 °F 10.7 °F 1020.9 in Calm     87 % 0.0 in 46.0 W/m2 BKN
08:20 12.8 °F 10.8 °F 1020.9 in Calm     88 % 0.0 in 77.0 W/m2 FEW
08:25 12.8 °F 10.8 °F 1020.9 in Calm     88 % 0.0 in 105.0 W/m2 CLR
08:30 13.3 °F 11.4 °F 1020.9 in Calm     88 % 0.0 in 127.0 W/m2 CLR
08:36 13.3 °F 11.2 °F 1021.2 in Calm     87 % 0.0 in 127.0 W/m2 CLR
08:41 13.9 °F 11.8 °F 1021.2 in Calm     87 % 0.0 in 100.0 W/m2 CLR
08:46 14.4 °F 12.3 °F 1021.2 in Calm     87 % 0.0 in 104.0 W/m2 CLR
08:51 14.4 °F 12.3 °F 1021.2 in Calm     87 % 0.0 in 86.0 W/m2 CLR
08:56 15.0 °F 12.7 °F 1021.2 in Calm     86 % 0.0 in 88.0 W/m2 CLR
09:01 15.0 °F 12.7 °F 1021.2 in Calm     86 % 0.0 in 97.0 W/m2 CLR
09:06 15.0 °F 12.7 °F 1021.2 in Calm     86 % 0.0 in 104.0 W/m2 CLR
09:11 15.6 °F 13.1 °F 1021.2 in Calm     85 % 0.0 in 105.0 W/m2 CLR
09:16 15.6 °F 12.9 °F 1021.6 in Calm     84 % 0.0 in 104.0 W/m2 CLR
09:21 16.1 °F 13.2 °F 1021.6 in Calm     83 % 0.0 in 102.0 W/m2 CLR
09:26 16.1 °F 13.2 °F 1021.6 in Calm     83 % 0.0 in 97.0 W/m2 CLR
09:31 16.1 °F 13.2 °F 1021.6 in Calm     83 % 0.0 in 86.0 W/m2 CLR
09:36 16.1 °F 13.1 °F 1021.9 in Calm     82 % 0.0 in 79.0 W/m2 CLR
09:41 16.7 °F 13.4 °F 1021.9 in Calm     81 % 0.0 in 81.0 W/m2 FEW
09:46 16.7 °F 13.0 °F 1021.9 in Calm     79 % 0.0 in 84.0 W/m2 FEW
09:51 16.7 °F 12.6 °F 1022.2 in WSW 9.3 mph 9.3 mph 77 % 0.0 in 104.0 W/m2 CLR
09:56 16.7 °F 12.4 °F 1022.2 in SSW 3.7 mph   76 % 0.0 in 120.0 W/m2 CLR
10:01 17.2 °F 12.7 °F 1022.2 in WSW 3.7 mph 3.7 mph 75 % 0.0 in 139.0 W/m2 CLR
10:06 17.8 °F 13.1 °F 1022.2 in Calm     74 % 0.0 in 116.0 W/m2 CLR
10:11 17.8 °F 12.9 °F 1022.6 in SW 7.4 mph 7.4 mph 73 % 0.0 in 128.0 W/m2 CLR
10:16 17.8 °F 12.7 °F 1022.6 in SW 18.5 mph 18.5 mph 72 % 0.0 in 135.0 W/m2 CLR
10:21 18.3 °F 13.2 °F 1022.6 in SSW 8.0 mph 8.0 mph 72 % 0.0 in 176.0 W/m2 CLR
10:26 18.3 °F 13.0 °F 1022.6 in SSW 11.1 mph 11.1 mph 71 % 0.0 in 209.0 W/m2 CLR
10:31 18.3 °F 13.2 °F 1022.6 in SW 7.4 mph 7.4 mph 72 % 0.0 in 144.0 W/m2 CLR
10:36 18.3 °F 13.0 °F 1022.9 in SSW 13.0 mph 13.0 mph 71 % 0.0 in 100.0 W/m2 CLR
10:41 18.3 °F 13.0 °F 1022.9 in SW 11.1 mph 11.1 mph 71 % 0.0 in 84.0 W/m2 CLR
10:46 18.3 °F 13.2 °F 1022.9 in South 9.7 mph 9.7 mph 72 % 0.0 in 79.0 W/m2 CLR
10:51 17.8 °F 13.1 °F 1022.9 in SSW 11.1 mph 11.1 mph 74 % 0.0 in 84.0 W/m2 FEW
10:56 17.8 °F 13.7 °F 1022.9 in SSW 5.6 mph 5.6 mph 77 % 0.3 in 91.0 W/m2 RA
11:01 17.2 °F 13.6 °F 1023.2 in South 9.3 mph 9.3 mph 79 % 0.3 in 67.0 W/m2 CLR
11:06 17.2 °F 13.3 °F 1022.9 in East 5.6 mph   78 % 0.3 in 67.0 W/m2 FEW
11:11 16.7 °F 13.4 °F 1022.9 in Calm     81 % 0.5 in 69.0 W/m2 RA
11:16 16.7 °F 13.6 °F 1023.2 in Calm     82 % 0.5 in 58.0 W/m2 FEW
11:22 16.7 °F 13.8 °F 1023.2 in Calm     83 % 0.5 in 67.0 W/m2 SCT
11:26 16.7 °F 13.8 °F 1023.2 in Calm     83 % 0.5 in 67.0 W/m2 SCT
11:32 16.7 °F 13.8 °F 1023.2 in Calm     83 % 0.5 in 105.0 W/m2 FEW
11:37 17.2 °F 14.5 °F 1023.2 in Calm     84 % 0.5 in 127.0 W/m2 CLR
11:41 17.2 °F 14.5 °F 1023.2 in NNW 1.9 mph   84 % 0.5 in 188.0 W/m2 CLR
11:47 17.2 °F 14.7 °F 1023.2 in Calm     85 % 0.5 in 234.0 W/m2 CLR
11:52 17.8 °F 15.2 °F 1023.2 in Calm     85 % 0.5 in 142.0 W/m2 CLR
11:57 17.2 °F 14.5 °F 1023.2 in North 1.9 mph   84 % 0.3 in 153.0 W/m2 CLR
12:02 17.8 °F 14.8 °F 1023.2 in Calm     83 % 0.3 in 213.0 W/m2 CLR
12:07 17.8 °F 14.8 °F 1023.2 in Calm     83 % 0.3 in 265.0 W/m2 CLR
12:12 17.8 °F 14.7 °F 1022.9 in Calm   0.2 mph 82 % 0.0 in 415.0 W/m2 CLR
12:17 18.3 °F 15.0 °F 1023.2 in Calm     81 % 0.0 in 404.0 W/m2 CLR
12:22 18.3 °F 15.0 °F 1022.9 in NNW 3.7 mph 3.9 mph 81 % 0.0 in 754.0 W/m2 CLR
12:27 18.9 °F 14.9 °F 1022.9 in NNW 5.6 mph   78 % 0.0 in 612.0 W/m2 CLR
12:32 18.3 °F 14.4 °F 1022.9 in Calm     78 % 0.0 in 329.0 W/m2 CLR
12:37 18.9 °F 14.6 °F 1022.9 in Calm     76 % 0.0 in 325.0 W/m2 CLR
12:42 19.4 °F 15.1 °F 1022.9 in Calm     76 % 0.0 in 339.0 W/m2 CLR
12:47 18.9 °F 14.6 °F 1022.9 in Calm     76 % 0.0 in 397.0 W/m2 CLR
12:52 19.4 °F 15.1 °F 1023.2 in Calm     76 % 0.0 in 397.0 W/m2 CLR
12:57 19.4 °F 14.7 °F 1022.9 in Calm     74 % 0.0 in 823.0 W/m2 CLR
13:02 20.0 °F 14.8 °F 1022.9 in Calm     72 % 0.0 in 793.0 W/m2 CLR
13:07 20.0 °F 15.4 °F 1023.2 in Calm     75 % 0.0 in 782.0 W/m2 CLR
13:12 20.6 °F 15.1 °F 1022.9 in Calm     71 % 0.0 in 807.0 W/m2 CLR
13:17 21.1 °F 15.0 °F 1022.9 in Calm     68 % 0.0 in 802.0 W/m2 CLR
13:22 21.1 °F 14.7 °F 1022.9 in Calm     67 % 0.0 in 788.0 W/m2 CLR
13:27 21.1 °F 14.7 °F 1022.9 in Calm     67 % 0.0 in 932.0 W/m2 CLR
13:32 21.1 °F 14.1 °F 1022.9 in Calm     64 % 0.0 in 357.0 W/m2 CLR
13:37 20.6 °F 13.7 °F 1022.9 in Calm     65 % 0.0 in 316.0 W/m2 CLR
13:42 21.1 °F 14.5 °F 1022.9 in North 7.4 mph 7.4 mph 66 % 0.0 in 373.0 W/m2 CLR
13:47 21.1 °F 14.7 °F 1023.2 in NNW 5.6 mph 5.6 mph 67 % 0.0 in 366.0 W/m2 CLR
13:52 21.1 °F 14.7 °F 1023.2 in WNW 8.0 mph 8.0 mph 67 % 0.0 in 381.0 W/m2 CLR
13:57 21.1 °F 14.5 °F 1023.2 in Calm     66 % 0.0 in 355.0 W/m2 CLR
14:02 21.1 °F 15.0 °F 1023.2 in NNW 5.6 mph 5.6 mph 68 % 0.0 in 427.0 W/m2 CLR
14:07 21.1 °F 15.0 °F 1023.2 in North 16.7 mph 16.7 mph 68 % 0.0 in 320.0 W/m2 CLR
14:12 21.1 °F 15.4 °F 1023.2 in WNW 14.8 mph 14.8 mph 70 % 0.0 in 234.0 W/m2 CLR
14:17 20.6 °F 14.9 °F 1023.2 in WNW 11.1 mph 11.1 mph 70 % 0.0 in 229.0 W/m2 CLR
14:22 20.6 °F 15.1 °F 1023.2 in WNW 14.5 mph 14.5 mph 71 % 0.0 in 195.0 W/m2 CLR
14:27 20.6 °F 15.1 °F 1023.2 in West 16.7 mph 16.7 mph 71 % 0.0 in 206.0 W/m2 CLR
14:32 20.0 °F 15.0 °F 1023.2 in WNW 19.3 mph 19.3 mph 73 % 0.0 in 248.0 W/m2 CLR
14:37 20.0 °F 15.4 °F 1023.2 in West 16.1 mph 16.1 mph 75 % 0.0 in 285.0 W/m2 CLR
14:42 20.0 °F 15.8 °F 1022.9 in West 18.5 mph 18.5 mph 77 % 0.0 in 306.0 W/m2 CLR
14:47 20.0 °F 16.2 °F 1022.9 in West 18.5 mph 18.5 mph 79 % 0.0 in 315.0 W/m2 CLR
14:52 20.0 °F 16.1 °F 1022.9 in West 16.7 mph 16.7 mph 78 % 0.0 in 671.0 W/m2 CLR
14:57 20.0 °F 16.1 °F 1022.9 in West 17.7 mph 17.7 mph 78 % 0.0 in 250.0 W/m2 CLR
15:02 19.4 °F 15.7 °F 1022.9 in West 16.7 mph 16.7 mph 79 % 0.0 in 232.0 W/m2 CLR
15:07 19.4 °F 15.9 °F 1023.2 in WSW 16.7 mph 16.7 mph 80 % 0.0 in 206.0 W/m2 CLR
15:12 18.9 °F 15.2 °F 1023.2 in NW 11.1 mph 11.1 mph 79 % 0.0 in 193.0 W/m2 CLR
15:13 18.9 °F 15.2 °F 1023.2 in WNW 12.9 mph 12.9 mph 79 % 0.0 in 192.0 W/m2 CLR
15:18 18.9 °F 15.4 °F 1023.2 in NW 9.7 mph 9.7 mph 80 % 0.0 in 165.0 W/m2 CLR
15:23 18.9 °F 15.4 °F 1023.2 in WNW 16.7 mph 16.7 mph 80 % 0.0 in 132.0 W/m2 CLR
15:28 18.9 °F 15.6 °F 1023.2 in West 4.8 mph 4.8 mph 81 % 0.0 in 127.0 W/m2 CLR
15:33 18.9 °F 15.6 °F 1023.2 in Calm     81 % 0.0 in 141.0 W/m2 CLR
15:38 18.9 °F 15.7 °F 1023.6 in Calm     82 % 0.0 in 167.0 W/m2 CLR
15:44 18.9 °F 15.7 °F 1023.2 in Calm     82 % 0.0 in 165.0 W/m2 CLR
15:49 18.9 °F 15.7 °F 1023.2 in Calm     82 % 0.0 in 153.0 W/m2 CLR
15:54 18.3 °F 15.2 °F 1022.9 in Calm     82 % 0.0 in 155.0 W/m2 CLR
15:59 18.3 °F 15.2 °F 1022.6 in Calm     82 % 0.0 in 169.0 W/m2 CLR
16:04 18.3 °F 15.4 °F 1022.6 in Calm     83 % 0.0 in 146.0 W/m2 CLR
16:09 18.3 °F 15.2 °F 1022.6 in Calm     82 % 0.0 in 146.0 W/m2 CLR
16:14 18.3 °F 15.0 °F 1022.6 in North 3.7 mph 3.7 mph 81 % 0.0 in 190.0 W/m2 CLR
16:19 18.9 °F 15.7 °F 1022.9 in Calm     82 % 0.0 in 171.0 W/m2 CLR
16:24 18.3 °F 15.2 °F 1022.9 in NNE 3.2 mph 3.2 mph 82 % 0.0 in 100.0 W/m2 CLR
16:29 18.3 °F 15.0 °F 1022.6 in Calm   0.5 mph 81 % 0.0 in 109.0 W/m2 CLR
16:34 18.3 °F 15.0 °F 1022.6 in NNW 7.4 mph 7.4 mph 81 % 0.0 in 97.0 W/m2 CLR
16:39 18.3 °F 15.2 °F 1022.6 in Calm     82 % 0.0 in 88.0 W/m2 CLR
16:44 18.3 °F 15.2 °F 1022.2 in Calm     82 % 0.0 in 100.0 W/m2 CLR
16:49 18.3 °F 15.2 °F 1022.6 in Calm     82 % 0.0 in 100.0 W/m2 CLR
16:54 18.3 °F 15.2 °F 1022.2 in Calm     82 % 0.0 in 93.0 W/m2 CLR
16:59 18.3 °F 15.0 °F 1022.6 in Calm     81 % 0.0 in 76.0 W/m2 CLR
17:04 18.3 °F 15.0 °F 1022.2 in Calm     81 % 0.0 in 98.0 W/m2 FEW
17:09 18.3 °F 15.0 °F 1022.2 in Calm     81 % 0.0 in 88.0 W/m2 CLR
17:14 18.3 °F 15.0 °F 1022.2 in Calm     81 % 0.0 in 86.0 W/m2 CLR
17:19 18.3 °F 15.0 °F 1022.2 in Calm     81 % 0.0 in 77.0 W/m2 CLR
17:24 18.3 °F 14.8 °F 1022.2 in Calm     80 % 0.0 in 67.0 W/m2 FEW
17:29 18.3 °F 15.0 °F 1022.2 in Calm     81 % 0.0 in 56.0 W/m2 FEW
17:34 18.3 °F 15.0 °F 1022.2 in Calm     81 % 0.0 in 49.0 W/m2 SCT
17:39 18.3 °F 14.8 °F 1022.2 in Calm     80 % 0.0 in 44.0 W/m2 SCT
17:44 18.9 °F 15.4 °F 1022.2 in Calm     80 % 0.0 in 53.0 W/m2 SCT
17:49 18.9 °F 15.4 °F 1022.6 in Calm     80 % 0.0 in 69.0 W/m2 SCT
17:54 18.9 °F 15.4 °F 1022.2 in Calm     80 % 0.0 in 74.0 W/m2 FEW
17:59 18.9 °F 15.6 °F 1022.2 in Calm     81 % 0.0 in 88.0 W/m2 FEW
18:04 18.9 °F 15.6 °F 1022.2 in Calm     81 % 0.0 in 120.0 W/m2 CLR
18:09 18.9 °F 15.6 °F 1022.2 in Calm     81 % 0.0 in 121.0 W/m2 CLR
18:14 18.9 °F 15.6 °F 1022.2 in Calm     81 % 0.0 in 95.0 W/m2 CLR
18:19 18.9 °F 15.4 °F 1022.2 in Calm     80 % 0.0 in 88.0 W/m2 CLR
18:24 18.9 °F 15.4 °F 1021.9 in North 5.6 mph 5.6 mph 80 % 0.0 in 90.0 W/m2 CLR
18:29 18.9 °F 15.6 °F 1021.9 in NNE 8.0 mph 8.0 mph 81 % 0.0 in 91.0 W/m2 CLR
18:34 18.9 °F 15.4 °F 1021.9 in North 11.1 mph 11.1 mph 80 % 0.0 in 104.0 W/m2 CLR
18:39 18.9 °F 15.2 °F 1021.9 in NNE 5.6 mph 5.6 mph 79 % 0.0 in 116.0 W/m2 CLR
18:49 18.9 °F 14.9 °F 1022.2 in Calm     78 % 0.0 in 105.0 W/m2 CLR
18:54 19.4 °F 15.5 °F 1022.2 in Calm     78 % 0.0 in 77.0 W/m2 CLR
18:59 18.9 °F 14.8 °F 1022.2 in Calm     77 % 0.0 in 62.0 W/m2 SCT
19:04 18.9 °F 14.9 °F 1021.9 in Calm     78 % 0.0 in 53.0 W/m2 SCT
19:09 18.9 °F 14.9 °F 1022.2 in Calm     78 % 0.0 in 49.0 W/m2 SCT
19:14 18.3 °F 14.4 °F 1022.2 in Calm     78 % 0.0 in 40.0 W/m2 BKN
19:19 18.3 °F 14.4 °F 1022.2 in Calm     78 % 0.0 in 28.0 W/m2 BKN
19:20 18.3 °F 14.4 °F 1021.9 in Calm     78 % 0.0 in 25.0 W/m2 BKN
19:25 17.8 °F 13.9 °F 1022.2 in Calm     78 % 0.0 in 16.0 W/m2 BKN
19:30 17.2 °F 13.6 °F 1022.2 in Calm     79 % 0.0 in 12.0 W/m2 BKN
19:35 17.2 °F 13.6 °F 1022.2 in Calm     79 % 0.0 in 9.0 W/m2 BKN
19:40 16.7 °F 13.2 °F 1021.9 in Calm     80 % 0.0 in 7.0 W/m2 BKN
19:45 16.1 °F 12.7 °F 1021.9 in Calm     80 % 0.0 in 5.0 W/m2 OVC
19:50 16.1 °F 12.7 °F 1022.2 in Calm     80 % 0.0 in 0.0 W/m2 OVC
19:55 15.6 °F 12.3 °F 1022.2 in Calm     81 % 0.0 in 0.0 W/m2 OVC
19:56 15.6 °F 12.3 °F 1022.2 in Calm     81 % 0.0 in 0.0 W/m2 OVC
20:01 15.6 °F 12.3 °F 1022.2 in Calm     81 % 0.0 in 0.0 W/m2 CLR
20:06 15.0 °F 11.9 °F 1022.2 in Calm     82 % 0.0 in 0.0 W/m2 CLR
20:11 15.0 °F 11.9 °F 1022.2 in Calm     82 % 0.0 in 0.0 W/m2 CLR
20:16 15.0 °F 12.1 °F 1022.2 in Calm     83 % 0.0 in 0.0 W/m2 CLR
20:21 14.4 °F 11.4 °F 1022.2 in Calm     82 % 0.0 in 0.0 W/m2 CLR
20:26 14.4 °F 11.6 °F 1022.2 in Calm     83 % 0.0 in 0.0 W/m2 CLR
20:31 14.4 °F 11.8 °F 1022.2 in Calm     84 % 0.0 in 0.0 W/m2 CLR
20:36 13.9 °F 11.2 °F 1022.6 in Calm     84 % 0.0 in 0.0 W/m2 CLR
20:41 13.9 °F 11.4 °F 1022.6 in Calm     85 % 0.0 in 0.0 W/m2 CLR
20:46 13.9 °F 11.4 °F 1022.6 in Calm     85 % 0.0 in 0.0 W/m2 CLR
20:51 13.3 °F 11.1 °F 1022.6 in Calm     86 % 0.0 in 0.0 W/m2 CLR
20:56 13.3 °F 11.1 °F 1022.6 in Calm     86 % 0.0 in 0.0 W/m2 CLR
21:01 13.3 °F 11.1 °F 1022.9 in Calm     86 % 0.0 in 0.0 W/m2 CLR
21:06 13.3 °F 11.1 °F 1023.2 in Calm     86 % 0.0 in 0.0 W/m2 CLR
21:11 13.3 °F 11.1 °F 1023.2 in Calm     86 % 0.0 in 0.0 W/m2 CLR
21:16 13.9 °F 11.6 °F 1023.2 in Calm     86 % 0.0 in 0.0 W/m2 CLR
21:21 13.9 °F 11.8 °F 1023.6 in Calm     87 % 0.0 in 0.0 W/m2 CLR
21:26 13.9 °F 11.8 °F 1023.6 in Calm     87 % 0.0 in 0.0 W/m2 CLR
21:31 13.9 °F 11.9 °F 1023.6 in Calm     88 % 0.0 in 0.0 W/m2 CLR
21:36 13.9 °F 11.9 °F 1023.6 in Calm     88 % 0.0 in 0.0 W/m2 CLR
21:41 13.3 °F 11.4 °F 1023.6 in Calm     88 % 0.0 in 0.0 W/m2 CLR
21:46 13.3 °F 11.4 °F 1023.6 in Calm     88 % 0.0 in 0.0 W/m2 CLR
21:51 13.3 °F 11.4 °F 1023.6 in Calm     88 % 0.0 in 0.0 W/m2 CLR
21:56 13.3 °F 11.6 °F 1023.6 in Calm     89 % 0.0 in 0.0 W/m2 CLR
22:01 13.3 °F 11.6 °F 1023.6 in Calm     89 % 0.0 in 0.0 W/m2 CLR
22:06 13.3 °F 11.6 °F 1023.6 in Calm     89 % 0.0 in 0.0 W/m2 CLR
22:11 13.3 °F 11.6 °F 1023.9 in Calm     89 % 0.0 in 0.0 W/m2 CLR
22:16 13.3 °F 11.6 °F 1023.9 in Calm     89 % 0.0 in 0.0 W/m2 CLR
22:21 13.3 °F 11.6 °F 1023.9 in Calm     89 % 0.0 in 0.0 W/m2 CLR
22:26 13.3 °F 11.7 °F 1023.9 in Calm     90 % 0.0 in 0.0 W/m2 CLR
22:31 12.8 °F 11.2 °F 1023.9 in Calm     90 % 0.0 in 0.0 W/m2 CLR
22:36 13.3 °F 11.7 °F 1023.9 in Calm     90 % 0.0 in 0.0 W/m2 CLR
22:41 13.3 °F 11.7 °F 1023.9 in Calm     90 % 0.0 in 0.0 W/m2 CLR
22:46 13.3 °F 11.9 °F 1023.9 in Calm     91 % 0.0 in 0.0 W/m2 CLR
22:51 13.3 °F 11.9 °F 1023.9 in Calm     91 % 0.0 in 0.0 W/m2 CLR
22:56 13.3 °F 11.7 °F 1023.9 in Calm     90 % 0.0 in 0.0 W/m2 CLR
23:01 13.9 °F 12.3 °F 1023.9 in Calm     90 % 0.0 in 0.0 W/m2 CLR
23:06 13.9 °F 12.3 °F 1023.9 in Calm     90 % 0.0 in 0.0 W/m2 CLR
23:11 13.9 °F 12.4 °F 1023.9 in Calm     91 % 0.0 in 0.0 W/m2 CLR
23:16 13.9 °F 12.4 °F 1023.9 in Calm     91 % 0.0 in 0.0 W/m2 CLR
23:21 13.3 °F 11.9 °F 1023.9 in Calm     91 % 0.0 in 0.0 W/m2 CLR
23:26 13.3 °F 11.9 °F 1023.9 in Calm     91 % 0.0 in 0.0 W/m2 CLR
23:31 13.3 °F 11.9 °F 1023.9 in Calm     91 % 0.0 in 0.0 W/m2 CLR
23:32 13.3 °F 11.9 °F 1023.9 in Calm     91 % 0.0 in 0.0 W/m2 CLR
23:37 13.3 °F 11.9 °F 1023.9 in Calm     91 % 0.0 in 0.0 W/m2 CLR
23:42 13.3 °F 11.9 °F 1023.9 in Calm     91 % 0.0 in 0.0 W/m2 CLR
23:47 13.3 °F 11.9 °F 1023.9 in Calm     91 % 0.0 in 0.0 W/m2 CLR
23:52 13.3 °F 11.9 °F 1023.9 in Calm     91 % 0.0 in 0.0 W/m2 CLR
23:57 13.3 °F 11.9 °F 1023.9 in Calm     91 % 0.0 in 0.0 W/m2 CLR
Lo Temps de Massalio
Compliments of Weather Underground - 1.25 mb